Time;durP1;ratioP1;P1;durP2;ratioP2;P2;SDS_P1;SDS_P2;PMS_P1;PMS_P2;Temp;Humidity;BMP_temperature;BMP_pressure;BME280_temperature;BME280_humidity;BME280_pressure;Samples;Min_cycle;Max_cycle;Signal;HPM_P1;HPM_P2
2022/03/04 00:00:59;;;;;;;;;;;23.30;37.10;;;;;;1586052;75;693;-69
2022/03/04 00:03:01;;;;;;;;;;;23.30;37.10;;;;;;1588019;75;795;-69
2022/03/04 00:05:04;;;;;;;;;;;23.20;37.10;;;;;;1587811;75;769;-68
2022/03/04 00:07:05;;;;;;;;;;;23.20;37.30;;;;;;1585673;73;1105;-68
2022/03/04 00:09:07;;;;;;;;;;;23.30;37.30;;;;;;1587927;75;768;-68
2022/03/04 00:11:09;;;;;;;;;;;23.20;37.20;;;;;;1587734;75;787;-68
2022/03/04 00:13:11;;;;;;;;;;;23.30;37.30;;;;;;1587948;75;784;-68
2022/03/04 00:15:13;;;;;;;;;;;23.30;37.30;;;;;;1584627;75;816;-70
2022/03/04 00:17:15;;;;;;;;;;;23.30;37.40;;;;;;1583649;73;1952;-70
2022/03/04 00:19:17;;;;;;;;;;;23.20;37.30;;;;;;1587961;75;671;-69
2022/03/04 00:21:19;;;;;;;;;;;23.30;37.40;;;;;;1586391;75;584;-69
2022/03/04 00:23:21;;;;;;;;;;;23.30;37.50;;;;;;1587905;75;727;-69
2022/03/04 00:25:23;;;;;;;;;;;23.20;37.40;;;;;;1587852;75;704;-69
2022/03/04 00:27:25;;;;;;;;;;;23.30;37.50;;;;;;1587766;73;1146;-69
2022/03/04 00:29:27;;;;;;;;;;;23.30;37.50;;;;;;1587876;75;692;-68
2022/03/04 00:31:29;;;;;;;;;;;23.30;37.60;;;;;;1588156;75;710;-68
2022/03/04 00:33:30;;;;;;;;;;;23.30;37.60;;;;;;1588060;75;581;-68
2022/03/04 00:35:32;;;;;;;;;;;23.30;37.70;;;;;;1588208;75;782;-68
2022/03/04 00:37:34;;;;;;;;;;;23.30;37.60;;;;;;1571532;75;1952;-70
2022/03/04 00:39:36;;;;;;;;;;;23.20;37.60;;;;;;1571871;74;713;-68
2022/03/04 00:41:38;;;;;;;;;;;23.30;37.60;;;;;;1588018;75;732;-67
2022/03/04 00:43:43;;;;;;;;;;;23.30;37.70;;;;;;1560942;76;740;-69
2022/03/04 00:45:43;;;;;;;;;;;23.30;37.70;;;;;;1562002;75;1631;-68
2022/03/04 00:47:45;;;;;;;;;;;23.40;37.70;;;;;;1561125;76;646;-70
2022/03/04 00:49:47;;;;;;;;;;;23.30;37.80;;;;;;1562206;75;706;-71
2022/03/04 00:51:49;;;;;;;;;;;23.30;37.80;;;;;;1560973;76;775;-69
2022/03/04 00:53:51;;;;;;;;;;;23.20;37.70;;;;;;1560934;76;783;-69
2022/03/04 00:55:53;;;;;;;;;;;23.20;37.70;;;;;;1560815;75;1139;-68
2022/03/04 00:57:55;;;;;;;;;;;23.20;37.70;;;;;;1560976;76;1916;-68
2022/03/04 00:59:56;;;;;;;;;;;23.30;37.90;;;;;;1562425;75;760;-69
2022/03/04 01:01:58;;;;;;;;;;;23.30;37.80;;;;;;1560921;76;755;-69
2022/03/04 01:04:00;;;;;;;;;;;23.30;37.90;;;;;;1569703;75;785;-69
2022/03/04 01:06:02;;;;;;;;;;;23.30;37.80;;;;;;1587981;75;1180;-70
2022/03/04 01:08:04;;;;;;;;;;;23.30;37.90;;;;;;1587964;75;804;-70
2022/03/04 01:10:06;;;;;;;;;;;23.30;38.00;;;;;;1588216;75;736;-70
2022/03/04 01:12:08;;;;;;;;;;;23.30;38.00;;;;;;1588069;75;720;-68
2022/03/04 01:14:10;;;;;;;;;;;23.20;38.10;;;;;;1588141;75;801;-69
2022/03/04 01:16:12;;;;;;;;;;;23.20;38.00;;;;;;1583862;73;1127;-69
2022/03/04 01:18:14;;;;;;;;;;;23.30;38.10;;;;;;1560798;76;1938;-69
2022/03/04 01:20:16;;;;;;;;;;;23.20;38.10;;;;;;1573528;75;581;-69
2022/03/04 01:22:18;;;;;;;;;;;23.30;38.20;;;;;;1587987;75;654;-69
2022/03/04 01:24:20;;;;;;;;;;;23.20;38.10;;;;;;1574309;75;788;-69
2022/03/04 01:26:22;;;;;;;;;;;23.30;38.30;;;;;;1587433;73;1151;-68
2022/03/04 01:28:24;;;;;;;;;;;23.30;38.30;;;;;;1588062;75;714;-68
2022/03/04 01:30:26;;;;;;;;;;;23.30;38.30;;;;;;1588168;75;774;-69
2022/03/04 01:32:27;;;;;;;;;;;23.30;38.40;;;;;;1588218;75;794;-69
2022/03/04 01:34:29;;;;;;;;;;;23.30;38.30;;;;;;1569297;75;764;-68
2022/03/04 01:36:33;;;;;;;;;;;23.30;38.40;;;;;;1560814;75;1163;-68
2022/03/04 01:38:35;;;;;;;;;;;23.30;38.40;;;;;;1560732;76;1904;-68
2022/03/04 01:40:37;;;;;;;;;;;23.30;38.40;;;;;;1560794;76;759;-68
2022/03/04 01:42:39;;;;;;;;;;;23.30;38.50;;;;;;1561332;75;818;-68
2022/03/04 01:44:41;;;;;;;;;;;23.40;38.40;;;;;;1560759;76;818;-70
2022/03/04 01:46:43;;;;;;;;;;;23.30;38.50;;;;;;1560843;75;1131;-69
2022/03/04 01:48:45;;;;;;;;;;;23.30;38.60;;;;;;1560895;76;793;-71
2022/03/04 01:50:48;;;;;;;;;;;23.30;38.60;;;;;;1561224;75;715;-69
2022/03/04 01:52:50;;;;;;;;;;;23.30;38.60;;;;;;1560819;76;658;-67
2022/03/04 01:54:52;;;;;;;;;;;23.30;38.60;;;;;;1560742;76;737;-68
2022/03/04 01:56:54;;;;;;;;;;;23.30;38.60;;;;;;1560687;75;1153;-69
2022/03/04 01:58:56;;;;;;;;;;;23.30;38.60;;;;;;1562321;75;1932;-69
2022/03/04 02:00:58;;;;;;;;;;;23.30;38.60;;;;;;1560740;76;777;-69
2022/03/04 02:03:00;;;;;;;;;;;23.40;38.70;;;;;;1560852;76;811;-69
2022/03/04 02:05:02;;;;;;;;;;;23.30;38.80;;;;;;1583487;75;748;-69
2022/03/04 02:07:04;;;;;;;;;;;23.30;38.80;;;;;;1573508;75;1163;-69
2022/03/04 02:09:06;;;;;;;;;;;23.30;38.70;;;;;;1560857;76;780;-70
2022/03/04 02:11:08;;;;;;;;;;;23.30;38.70;;;;;;1560831;76;808;-69
2022/03/04 02:13:10;;;;;;;;;;;23.20;38.80;;;;;;1560835;76;701;-69
2022/03/04 02:15:12;;;;;;;;;;;23.30;38.90;;;;;;1562314;75;783;-69
2022/03/04 02:17:13;;;;;;;;;;;23.30;38.90;;;;;;1559902;75;1936;-69
2022/03/04 02:19:15;;;;;;;;;;;23.30;38.90;;;;;;1559713;76;663;-69
2022/03/04 02:21:20;;;;;;;;;;;23.30;38.90;;;;;;1561401;75;702;-70
2022/03/04 02:23:21;;;;;;;;;;;23.20;38.80;;;;;;1560590;76;1740;-69
2022/03/04 02:25:23;;;;;;;;;;;23.30;38.90;;;;;;1560876;76;721;-71
2022/03/04 02:27:25;;;;;;;;;;;23.30;38.90;;;;;;1562359;75;1130;-69
2022/03/04 02:29:27;;;;;;;;;;;23.30;39.00;;;;;;1560902;76;779;-69
2022/03/04 02:31:29;;;;;;;;;;;23.30;39.00;;;;;;1560861;76;741;-69
2022/03/04 02:33:30;;;;;;;;;;;23.30;39.10;;;;;;1560907;76;726;-68
2022/03/04 02:35:33;;;;;;;;;;;23.30;39.00;;;;;;1562032;75;770;-69
2022/03/04 02:37:36;;;;;;;;;;;23.30;39.10;;;;;;1560784;75;1951;-69
2022/03/04 02:39:37;;;;;;;;;;;23.30;39.20;;;;;;1561221;74;771;-70
2022/03/04 02:41:39;;;;;;;;;;;23.30;39.20;;;;;;1582068;75;790;-69
2022/03/04 02:43:41;;;;;;;;;;;23.30;39.10;;;;;;1586027;75;738;-68
2022/03/04 02:45:43;;;;;;;;;;;23.30;39.20;;;;;;1582788;75;751;-69
2022/03/04 02:47:45;;;;;;;;;;;23.30;39.20;;;;;;1588191;75;1164;-69
2022/03/04 02:49:47;;;;;;;;;;;23.30;39.10;;;;;;1583615;75;804;-69
2022/03/04 02:51:49;;;;;;;;;;;23.30;39.20;;;;;;1560891;76;734;-70
2022/03/04 02:53:51;;;;;;;;;;;23.30;39.20;;;;;;1560980;76;720;-69
2022/03/04 02:55:53;;;;;;;;;;;23.30;39.20;;;;;;1571947;73;1088;-65
2022/03/04 02:57:54;;;;;;;;;;;23.30;39.30;;;;;;1587881;75;1934;-68
2022/03/04 02:59:56;;;;;;;;;;;23.30;39.20;;;;;;1588114;75;725;-69
2022/03/04 03:01:58;;;;;;;;;;;23.30;39.20;;;;;;1561763;75;779;-69
2022/03/04 03:04:00;;;;;;;;;;;23.30;39.20;;;;;;1559625;75;794;-69
2022/03/04 03:06:02;;;;;;;;;;;23.30;39.20;;;;;;1561066;75;1152;-68
2022/03/04 03:08:04;;;;;;;;;;;23.30;39.20;;;;;;1560812;76;669;-69
2022/03/04 03:10:07;;;;;;;;;;;23.30;39.20;;;;;;1560901;76;781;-69
2022/03/04 03:12:09;;;;;;;;;;;23.30;39.30;;;;;;1560845;76;670;-69
2022/03/04 03:14:11;;;;;;;;;;;23.30;39.30;;;;;;1579821;74;670;-69
2022/03/04 03:16:13;;;;;;;;;;;23.30;39.30;;;;;;1590366;75;1127;-69
2022/03/04 03:18:15;;;;;;;;;;;23.30;39.40;;;;;;1588022;75;1949;-69
2022/03/04 03:20:17;;;;;;;;;;;23.30;39.50;;;;;;1576612;75;796;-69
2022/03/04 03:22:19;;;;;;;;;;;23.30;39.50;;;;;;1560955;76;662;-69
2022/03/04 03:24:21;;;;;;;;;;;23.30;39.50;;;;;;1560867;76;733;-71
2022/03/04 03:26:23;;;;;;;;;;;23.40;39.50;;;;;;1560782;75;1120;-69
2022/03/04 03:28:26;;;;;;;;;;;23.40;39.50;;;;;;1562272;75;814;-69
2022/03/04 03:30:28;;;;;;;;;;;23.30;39.50;;;;;;1567009;75;787;-69
2022/03/04 03:32:29;;;;;;;;;;;23.40;39.50;;;;;;1587703;75;672;-68
2022/03/04 03:34:31;;;;;;;;;;;23.40;39.40;;;;;;1582777;75;831;-68
2022/03/04 03:36:33;;;;;;;;;;;23.50;39.60;;;;;;1582931;73;1213;-68
2022/03/04 03:38:35;;;;;;;;;;;23.50;39.50;;;;;;1587097;75;1933;-67
2022/03/04 03:40:37;;;;;;;;;;;23.60;39.70;;;;;;1588018;75;719;-65
2022/03/04 03:42:43;;;;;;;;;;;23.60;39.90;;;;;;1588198;75;744;-67
2022/03/04 03:44:43;;;;;;;;;;;23.60;39.90;;;;;;1577372;75;1598;-67
2022/03/04 03:46:45;;;;;;;;;;;23.60;39.80;;;;;;1587843;75;1102;-69
2022/03/04 03:48:46;;;;;;;;;;;23.60;39.70;;;;;;1588202;75;718;-69
2022/03/04 03:50:48;;;;;;;;;;;23.70;39.80;;;;;;1568600;75;775;-69
2022/03/04 03:52:50;;;;;;;;;;;23.70;39.80;;;;;;1569541;75;957;-68
2022/03/04 03:54:52;;;;;;;;;;;23.70;39.80;;;;;;1588116;75;786;-68
2022/03/04 03:56:54;;;;;;;;;;;23.70;39.80;;;;;;1587963;75;1140;-68
2022/03/04 03:58:56;;;;;;;;;;;23.70;39.80;;;;;;1577256;75;1933;-68
2022/03/04 04:00:58;;;;;;;;;;;23.60;39.70;;;;;;1560987;76;768;-67
2022/03/04 04:03:00;;;;;;;;;;;23.70;39.90;;;;;;1560657;76;798;-68
2022/03/04 04:05:02;;;;;;;;;;;23.80;40.00;;;;;;1572929;75;781;-68
2022/03/04 04:07:05;;;;;;;;;;;23.70;40.00;;;;;;1581305;75;1148;-69
2022/03/04 04:09:08;;;;;;;;;;;23.70;40.00;;;;;;1560782;76;696;-68
2022/03/04 04:11:10;;;;;;;;;;;23.70;40.10;;;;;;1586616;75;773;-70
2022/03/04 04:13:11;;;;;;;;;;;23.70;40.10;;;;;;1588078;75;660;-68
2022/03/04 04:15:13;;;;;;;;;;;23.70;40.20;;;;;;1587816;75;777;-68
2022/03/04 04:17:15;;;;;;;;;;;23.80;40.10;;;;;;1559961;75;1131;-68
2022/03/04 04:19:17;;;;;;;;;;;23.70;40.20;;;;;;1559465;76;1934;-68
2022/03/04 04:21:19;;;;;;;;;;;23.70;40.20;;;;;;1562333;75;648;-69
2022/03/04 04:23:21;;;;;;;;;;;23.70;40.20;;;;;;1560831;76;627;-68
2022/03/04 04:25:23;;;;;;;;;;;23.70;40.10;;;;;;1560748;76;737;-69
2022/03/04 04:27:24;;;;;;;;;;;23.70;40.20;;;;;;1560903;75;1121;-69
2022/03/04 04:29:26;;;;;;;;;;;23.70;40.10;;;;;;1562228;75;728;-68
2022/03/04 04:31:28;;;;;;;;;;;23.70;40.20;;;;;;1560726;76;710;-68
2022/03/04 04:33:31;;;;;;;;;;;23.70;40.20;;;;;;1560926;76;773;-69
2022/03/04 04:35:33;;;;;;;;;;;23.70;40.30;;;;;;1586809;75;790;-68
2022/03/04 04:37:35;;;;;;;;;;;23.60;40.30;;;;;;1587699;73;1151;-68
2022/03/04 04:39:37;;;;;;;;;;;23.70;40.50;;;;;;1587893;75;1921;-68
2022/03/04 04:41:39;;;;;;;;;;;23.70;40.50;;;;;;1587541;75;733;-69
2022/03/04 04:43:41;;;;;;;;;;;23.70;40.60;;;;;;1587938;75;735;-68
2022/03/04 04:45:43;;;;;;;;;;;23.70;40.50;;;;;;1587617;75;727;-69
2022/03/04 04:47:45;;;;;;;;;;;23.70;40.50;;;;;;1587880;73;1241;-68
2022/03/04 04:49:46;;;;;;;;;;;23.70;40.60;;;;;;1587621;75;789;-70
2022/03/04 04:51:48;;;;;;;;;;;23.70;40.60;;;;;;1587900;75;786;-70
2022/03/04 04:53:52;;;;;;;;;;;23.70;40.60;;;;;;1587988;75;832;-70
2022/03/04 04:55:54;;;;;;;;;;;23.70;40.60;;;;;;1588045;73;1138;-68
2022/03/04 04:57:56;;;;;;;;;;;23.70;40.70;;;;;;1588078;75;782;-66
2022/03/04 04:59:58;;;;;;;;;;;23.70;40.70;;;;;;1568470;75;1934;-69
2022/03/04 05:02:00;;;;;;;;;;;23.70;40.70;;;;;;1560970;76;746;-69
2022/03/04 05:04:02;;;;;;;;;;;23.70;40.60;;;;;;1560693;76;701;-69
2022/03/04 05:06:03;;;;;;;;;;;23.80;40.50;;;;;;1559489;75;1153;-68
2022/03/04 05:08:05;;;;;;;;;;;23.80;40.60;;;;;;1573203;75;678;-68
2022/03/04 05:10:07;;;;;;;;;;;23.80;40.70;;;;;;1588065;75;808;-70
2022/03/04 05:12:10;;;;;;;;;;;23.80;40.70;;;;;;1588022;75;809;-69
2022/03/04 05:14:12;;;;;;;;;;;23.80;40.60;;;;;;1586995;75;712;-69
2022/03/04 05:16:14;;;;;;;;;;;23.80;40.60;;;;;;1581015;75;1161;-69
2022/03/04 05:18:16;;;;;;;;;;;23.80;40.60;;;;;;1560749;76;1928;-70
2022/03/04 05:20:18;;;;;;;;;;;23.80;40.60;;;;;;1573617;75;718;-70
2022/03/04 05:22:20;;;;;;;;;;;23.80;40.60;;;;;;1588042;75;728;-70
2022/03/04 05:24:22;;;;;;;;;;;23.80;40.60;;;;;;1588213;75;715;-68
2022/03/04 05:26:24;;;;;;;;;;;23.90;40.70;;;;;;1587923;73;1145;-68
2022/03/04 05:28:25;;;;;;;;;;;23.80;40.60;;;;;;1580502;75;821;-70
2022/03/04 05:30:27;;;;;;;;;;;23.80;40.50;;;;;;1560825;76;774;-68
2022/03/04 05:32:29;;;;;;;;;;;23.80;40.50;;;;;;1560870;76;768;-70
2022/03/04 05:34:31;;;;;;;;;;;23.80;40.50;;;;;;1560961;76;730;-70
2022/03/04 05:36:33;;;;;;;;;;;23.90;40.60;;;;;;1560598;75;1137;-69
2022/03/04 05:38:35;;;;;;;;;;;23.80;40.40;;;;;;1562243;75;1922;-71
2022/03/04 05:40:37;;;;;;;;;;;23.90;40.50;;;;;;1560940;76;930;-69
2022/03/04 05:42:39;;;;;;;;;;;23.90;40.50;;;;;;1560677;76;788;-70
2022/03/04 05:44:41;;;;;;;;;;;23.90;40.50;;;;;;1578250;75;755;-69
2022/03/04 05:46:45;;;;;;;;;;;23.90;40.50;;;;;;1583037;73;1109;-73
2022/03/04 05:48:46;;;;;;;;;;;23.90;40.50;;;;;;1586546;73;2006;-71
2022/03/04 05:50:48;;;;;;;;;;;23.90;40.50;;;;;;1584864;73;771;-69
2022/03/04 05:52:50;;;;;;;;;;;23.90;40.50;;;;;;1588055;73;699;-70
2022/03/04 05:54:52;;;;;;;;;;;23.80;40.40;;;;;;1584374;73;824;-70
2022/03/04 05:56:54;;;;;;;;;;;23.90;40.50;;;;;;1587966;73;1129;-70
2022/03/04 05:58:56;;;;;;;;;;;23.90;40.50;;;;;;1568009;75;1934;-69
2022/03/04 06:00:58;;;;;;;;;;;23.90;40.50;;;;;;1560770;76;845;-70
2022/03/04 06:03:00;;;;;;;;;;;23.90;40.60;;;;;;1560867;76;796;-69
2022/03/04 06:05:01;;;;;;;;;;;23.90;40.70;;;;;;1572785;75;765;-70
2022/03/04 06:07:04;;;;;;;;;;;23.90;40.70;;;;;;1579845;73;1295;-70
2022/03/04 06:09:05;;;;;;;;;;;23.90;40.80;;;;;;1587900;75;754;-70
2022/03/04 06:11:08;;;;;;;;;;;23.90;40.70;;;;;;1587786;75;752;-70
2022/03/04 06:13:11;;;;;;;;;;;23.90;40.70;;;;;;1587834;75;782;-70
2022/03/04 06:15:12;;;;;;;;;;;23.90;40.70;;;;;;1582000;75;723;-70
2022/03/04 06:17:16;;;;;;;;;;;23.80;40.60;;;;;;1567203;75;1143;-70
2022/03/04 06:19:18;;;;;;;;;;;23.90;40.70;;;;;;1559489;76;1956;-71
2022/03/04 06:21:19;;;;;;;;;;;23.80;40.70;;;;;;1562162;75;806;-71
2022/03/04 06:23:21;;;;;;;;;;;23.80;40.70;;;;;;1575660;75;742;-70
2022/03/04 06:25:23;;;;;;;;;;;23.90;40.90;;;;;;1587989;75;876;-70
2022/03/04 06:27:25;;;;;;;;;;;23.80;40.70;;;;;;1587979;75;1109;-69
2022/03/04 06:29:27;;;;;;;;;;;23.90;40.90;;;;;;1575139;75;742;-69
2022/03/04 06:31:29;;;;;;;;;;;24.00;41.00;;;;;;1560772;76;726;-69
2022/03/04 06:33:31;;;;;;;;;;;23.90;40.90;;;;;;1560751;76;668;-68
2022/03/04 06:35:33;;;;;;;;;;;24.00;41.00;;;;;;1560733;76;722;-69
2022/03/04 06:37:35;;;;;;;;;;;23.90;40.90;;;;;;1562084;75;1125;-70
2022/03/04 06:39:36;;;;;;;;;;;23.90;41.10;;;;;;1560791;76;1932;-69
2022/03/04 06:41:38;;;;;;;;;;;23.90;41.20;;;;;;1560861;76;791;-64
2022/03/04 06:43:40;;;;;;;;;;;23.90;41.30;;;;;;1585557;75;718;-64
2022/03/04 06:45:43;;;;;;;;;;;23.90;40.80;;;;;;1587967;75;775;-61
2022/03/04 06:47:44;;;;;;;;;;;24.10;40.60;;;;;;1574058;73;1130;-67
2022/03/04 06:49:46;;;;;;;;;;;24.10;40.20;;;;;;1570975;75;763;-64
2022/03/04 06:51:48;;;;;;;;;;;24.20;39.90;;;;;;1587973;75;768;-64
2022/03/04 06:53:50;;;;;;;;;;;24.20;39.70;;;;;;1587881;75;664;-63
2022/03/04 06:55:52;;;;;;;;;;;24.20;39.50;;;;;;1587885;73;1088;-67
2022/03/04 06:57:55;;;;;;;;;;;24.20;39.40;;;;;;1588128;75;733;-63
2022/03/04 06:59:57;;;;;;;;;;;24.20;39.30;;;;;;1575732;75;1913;-64
2022/03/04 07:01:59;;;;;;;;;;;24.20;39.30;;;;;;1560987;76;746;-69
2022/03/04 07:04:01;;;;;;;;;;;24.30;39.30;;;;;;1560895;76;780;-65
2022/03/04 07:06:03;;;;;;;;;;;24.20;39.10;;;;;;1571603;75;1163;-65
2022/03/04 07:08:07;;;;;;;;;;;24.20;39.00;;;;;;1560943;76;597;-67
2022/03/04 07:10:08;;;;;;;;;;;24.20;39.00;;;;;;1560675;76;1499;-64
2022/03/04 07:12:10;;;;;;;;;;;24.20;38.90;;;;;;1560903;76;721;-63
2022/03/04 07:14:12;;;;;;;;;;;24.20;38.90;;;;;;1562417;75;786;-65
2022/03/04 07:16:14;;;;;;;;;;;24.20;38.90;;;;;;1583951;73;1186;-65
2022/03/04 07:18:16;;;;;;;;;;;24.10;38.90;;;;;;1588109;75;763;-65
2022/03/04 07:20:18;;;;;;;;;;;24.20;38.90;;;;;;1576367;75;1917;-64
2022/03/04 07:22:20;;;;;;;;;;;24.20;38.90;;;;;;1560833;76;779;-65
2022/03/04 07:24:22;;;;;;;;;;;24.20;38.90;;;;;;1560532;76;787;-65
2022/03/04 07:26:24;;;;;;;;;;;24.20;38.80;;;;;;1559477;75;1153;-65
2022/03/04 07:28:26;;;;;;;;;;;24.20;38.80;;;;;;1559791;75;802;-67
2022/03/04 07:30:28;;;;;;;;;;;24.20;38.80;;;;;;1562287;74;744;-65
2022/03/04 07:32:31;;;;;;;;;;;24.20;38.70;;;;;;1585629;75;802;-65
2022/03/04 07:34:34;;;;;;;;;;;24.20;38.80;;;;;;1587951;75;781;-64
2022/03/04 07:36:35;;;;;;;;;;;24.20;38.70;;;;;;1581847;75;1181;-65
2022/03/04 07:38:37;;;;;;;;;;;24.20;38.70;;;;;;1583221;75;793;-64
2022/03/04 07:40:39;;;;;;;;;;;24.20;38.70;;;;;;1588008;75;1951;-65
2022/03/04 07:42:41;;;;;;;;;;;24.20;38.70;;;;;;1587884;75;681;-63
2022/03/04 07:44:43;;;;;;;;;;;24.20;38.70;;;;;;1587973;75;766;-65
2022/03/04 07:46:45;;;;;;;;;;;24.20;38.60;;;;;;1585948;73;1149;-65
2022/03/04 07:48:47;;;;;;;;;;;24.20;38.60;;;;;;1587871;75;714;-66
2022/03/04 07:50:49;;;;;;;;;;;24.20;38.70;;;;;;1585135;75;777;-67
2022/03/04 07:52:51;;;;;;;;;;;24.20;38.60;;;;;;1587960;74;806;-64
2022/03/04 07:54:53;;;;;;;;;;;24.20;38.60;;;;;;1587780;75;736;-64
2022/03/04 07:56:55;;;;;;;;;;;24.10;38.60;;;;;;1587824;73;1122;-65
2022/03/04 07:58:57;;;;;;;;;;;24.20;38.60;;;;;;1587763;75;760;-65
2022/03/04 08:00:59;;;;;;;;;;;24.20;38.60;;;;;;1586012;75;1939;-65
2022/03/04 08:03:01;;;;;;;;;;;24.20;38.60;;;;;;1587981;75;759;-65
2022/03/04 08:05:03;;;;;;;;;;;24.20;38.60;;;;;;1582194;75;787;-64
2022/03/04 08:07:05;;;;;;;;;;;24.10;38.60;;;;;;1587759;75;1133;-64
2022/03/04 08:09:07;;;;;;;;;;;24.20;38.60;;;;;;1585129;75;765;-65
2022/03/04 08:11:09;;;;;;;;;;;24.10;38.60;;;;;;1587857;75;776;-65
2022/03/04 08:13:11;;;;;;;;;;;24.20;38.60;;;;;;1587943;75;773;-67
2022/03/04 08:15:12;;;;;;;;;;;24.10;38.60;;;;;;1587674;75;930;-65
2022/03/04 08:17:15;;;;;;;;;;;24.10;38.60;;;;;;1587148;73;1134;-65
2022/03/04 08:19:17;;;;;;;;;;;24.10;38.60;;;;;;1587787;75;691;-67
2022/03/04 08:21:19;;;;;;;;;;;24.20;38.60;;;;;;1586889;75;744;-68
2022/03/04 08:23:20;;;;;;;;;;;24.10;38.60;;;;;;1587956;75;778;-65
2022/03/04 08:25:22;;;;;;;;;;;24.10;38.60;;;;;;1579991;75;714;-64
2022/03/04 08:27:24;;;;;;;;;;;24.10;38.70;;;;;;1586528;73;1126;-66
2022/03/04 08:29:26;;;;;;;;;;;24.10;38.70;;;;;;1584984;75;741;-65
2022/03/04 08:31:28;;;;;;;;;;;24.20;38.60;;;;;;1585297;75;749;-66
2022/03/04 08:33:30;;;;;;;;;;;24.20;38.50;;;;;;1588135;75;728;-66
2022/03/04 08:35:32;;;;;;;;;;;24.10;38.60;;;;;;1588083;75;793;-68
2022/03/04 08:37:34;;;;;;;;;;;24.20;38.60;;;;;;1569811;73;1107;-66
2022/03/04 08:39:36;;;;;;;;;;;24.20;38.30;;;;;;1571667;73;1942;-64
2022/03/04 08:41:37;;;;;;;;;;;24.10;38.00;;;;;;1578133;73;738;-67
2022/03/04 08:43:40;;;;;;;;;;;24.00;37.70;;;;;;1588324;73;733;-68
2022/03/04 08:45:42;;;;;;;;;;;24.00;37.50;;;;;;1593913;73;775;-65
2022/03/04 08:47:44;;;;;;;;;;;24.00;37.50;;;;;;1575341;75;1124;-66
2022/03/04 08:49:46;;;;;;;;;;;24.00;37.20;;;;;;1587836;75;776;-65
2022/03/04 08:51:48;;;;;;;;;;;24.00;36.20;;;;;;1582657;75;786;-66
2022/03/04 08:53:50;;;;;;;;;;;23.90;36.50;;;;;;1572585;75;720;-66
2022/03/04 08:55:52;;;;;;;;;;;23.90;36.00;;;;;;1570257;75;1128;-65
2022/03/04 08:57:54;;;;;;;;;;;23.80;35.90;;;;;;1583814;75;767;-64
2022/03/04 08:59:56;;;;;;;;;;;23.80;31.80;;;;;;1559728;75;1927;-66
2022/03/04 09:01:58;;;;;;;;;;;23.70;29.50;;;;;;1563990;73;734;-67
2022/03/04 09:04:00;;;;;;;;;;;23.60;30.60;;;;;;1594338;73;813;-68
2022/03/04 09:06:01;;;;;;;;;;;23.50;31.00;;;;;;1587938;75;1156;-65
2022/03/04 09:08:03;;;;;;;;;;;23.50;31.40;;;;;;1588124;75;736;-66
2022/03/04 09:10:06;;;;;;;;;;;23.50;31.60;;;;;;1561533;74;685;-65
2022/03/04 09:12:08;;;;;;;;;;;23.50;31.40;;;;;;1577752;73;710;-65
2022/03/04 09:14:10;;;;;;;;;;;23.50;31.30;;;;;;1603821;73;819;-66
2022/03/04 09:16:12;;;;;;;;;;;23.40;30.80;;;;;;1615883;72;1132;-66
2022/03/04 09:18:14;;;;;;;;;;;23.30;30.50;;;;;;1611300;73;772;-66
2022/03/04 09:20:19;;;;;;;;;;;23.40;31.00;;;;;;1603396;73;1947;-67
2022/03/04 09:22:19;;;;;;;;;;;23.30;30.70;;;;;;1599761;73;1763;-66
2022/03/04 09:24:21;;;;;;;;;;;23.30;31.10;;;;;;1598179;73;686;-69
2022/03/04 09:26:23;;;;;;;;;;;23.30;30.50;;;;;;1595119;73;1149;-66
2022/03/04 09:28:25;;;;;;;;;;;23.30;30.30;;;;;;1587900;75;735;-68
2022/03/04 09:30:27;;;;;;;;;;;23.30;30.30;;;;;;1587686;75;788;-66
2022/03/04 09:32:28;;;;;;;;;;;23.30;30.50;;;;;;1587834;75;807;-68
2022/03/04 09:34:30;;;;;;;;;;;23.20;30.30;;;;;;1587966;75;765;-66
2022/03/04 09:36:32;;;;;;;;;;;23.20;30.00;;;;;;1582490;73;1161;-66
2022/03/04 09:38:34;;;;;;;;;;;23.20;30.20;;;;;;1586229;74;840;-67
2022/03/04 09:40:36;;;;;;;;;;;23.20;29.90;;;;;;1586772;75;1961;-68
2022/03/04 09:42:38;;;;;;;;;;;23.20;29.40;;;;;;1585359;75;750;-69
2022/03/04 09:44:40;;;;;;;;;;;23.20;29.40;;;;;;1580314;75;717;-66
2022/03/04 09:46:42;;;;;;;;;;;23.10;30.20;;;;;;1580050;75;1179;-66
2022/03/04 09:48:44;;;;;;;;;;;23.20;29.40;;;;;;1587338;73;766;-67
2022/03/04 09:50:46;;;;;;;;;;;23.00;29.10;;;;;;1581094;73;685;-64
2022/03/04 09:52:49;;;;;;;;;;;23.10;28.90;;;;;;1585466;73;786;-66
2022/03/04 09:54:52;;;;;;;;;;;23.00;28.90;;;;;;1582869;73;765;-67
2022/03/04 09:56:54;;;;;;;;;;;23.00;28.90;;;;;;1590615;73;1146;-66
2022/03/04 09:58:56;;;;;;;;;;;22.90;29.20;;;;;;1577365;73;783;-66
2022/03/04 10:00:58;;;;;;;;;;;22.90;28.60;;;;;;1587481;74;1910;-66
2022/03/04 10:03:00;;;;;;;;;;;23.00;28.40;;;;;;1595657;73;787;-66
2022/03/04 10:05:02;;;;;;;;;;;23.00;28.30;;;;;;1583680;73;799;-66
2022/03/04 10:07:11;;;;;;;;;;;22.90;27.20;;;;;;1598055;73;1143;-66
2022/03/04 10:09:13;;;;;;;;;;;22.80;27.70;;;;;;1587574;73;851;-66
2022/03/04 10:11:26;;;;;;;;;;;22.80;27.90;;;;;;1596811;73;783;-66
2022/03/04 10:13:44;;;;;;;;;;;22.80;27.90;;;;;;1587551;74;935;-66
2022/03/04 10:15:55;;;;;;;;;;;22.70;27.70;;;;;;1587013;73;769;-69
2022/03/04 10:18:04;;;;;;;;;;;22.70;27.90;;;;;;1603117;73;783;-66
2022/03/04 10:20:07;;;;;;;;;;;22.70;27.40;;;;;;1591119;73;1940;-68
2022/03/04 10:22:09;;;;;;;;;;;22.70;27.60;;;;;;1606011;73;720;-66
2022/03/04 10:24:11;;;;;;;;;;;22.70;27.60;;;;;;1602853;73;737;-65
2022/03/04 10:26:13;;;;;;;;;;;22.70;27.80;;;;;;1593236;73;1087;-66
2022/03/04 10:28:15;;;;;;;;;;;22.70;27.00;;;;;;1597426;73;694;-68
2022/03/04 10:30:17;;;;;;;;;;;22.60;27.10;;;;;;1596373;73;800;-65
2022/03/04 10:32:19;;;;;;;;;;;22.60;27.50;;;;;;1587891;75;705;-70
2022/03/04 10:34:21;;;;;;;;;;;22.60;27.80;;;;;;1593596;73;821;-68
2022/03/04 10:36:23;;;;;;;;;;;22.60;27.50;;;;;;1592217;73;1142;-66
2022/03/04 10:38:26;;;;;;;;;;;22.50;27.30;;;;;;1584981;73;703;-67
2022/03/04 10:40:29;;;;;;;;;;;22.50;27.30;;;;;;1587901;75;1929;-67
2022/03/04 10:42:47;;;;;;;;;;;22.60;27.50;;;;;;1590351;73;724;-67
2022/03/04 10:44:49;;;;;;;;;;;22.50;27.30;;;;;;1587125;73;722;-66
2022/03/04 10:46:55;;;;;;;;;;;22.50;27.10;;;;;;1603284;72;1160;-66
2022/03/04 10:48:57;;;;;;;;;;;22.40;27.20;;;;;;1588056;75;780;-66
2022/03/04 10:51:04;;;;;;;;;;;22.40;26.50;;;;;;1588066;73;761;-66
2022/03/04 10:53:06;;;;;;;;;;;22.50;26.40;;;;;;1592714;73;1737;-66
2022/03/04 10:55:08;;;;;;;;;;;22.40;26.50;;;;;;1589417;73;762;-66
2022/03/04 10:57:10;;;;;;;;;;;22.30;26.50;;;;;;1587856;73;1150;-65
2022/03/04 10:59:12;;;;;;;;;;;22.30;26.70;;;;;;1587780;73;817;-66
2022/03/04 11:01:18;;;;;;;;;;;22.30;26.40;;;;;;1589000;73;1937;-66
2022/03/04 11:03:24;;;;;;;;;;;22.20;26.40;;;;;;1587921;73;712;-66
2022/03/04 11:05:26;;;;;;;;;;;22.30;26.60;;;;;;1582056;73;804;-66
2022/03/04 11:07:28;;;;;;;;;;;22.20;26.10;;;;;;1588582;73;1345;-64
2022/03/04 11:09:30;;;;;;;;;;;22.20;25.70;;;;;;1601730;73;758;-66
2022/03/04 11:11:33;;;;;;;;;;;22.10;25.70;;;;;;1600098;74;721;-66
2022/03/04 11:13:35;;;;;;;;;;;22.10;25.90;;;;;;1593472;74;777;-69
2022/03/04 11:15:37;;;;;;;;;;;22.10;26.10;;;;;;1588340;74;998;-66
2022/03/04 11:17:39;;;;;;;;;;;22.10;26.00;;;;;;1587132;73;1109;-67
2022/03/04 11:19:41;;;;;;;;;;;22.10;25.70;;;;;;1586450;74;716;-66
2022/03/04 11:21:43;;;;;;;;;;;22.10;25.50;;;;;;1588195;74;1930;-64
2022/03/04 11:23:46;;;;;;;;;;;22.00;25.70;;;;;;1587611;74;735;-70
2022/03/04 11:25:59;;;;;;;;;;;22.00;25.50;;;;;;1588109;73;1139;-66
2022/03/04 11:28:03;;;;;;;;;;;21.90;25.40;;;;;;1590969;74;789;-66
2022/03/04 11:30:06;;;;;;;;;;;21.90;25.20;;;;;;1564566;75;1143;-66
2022/03/04 11:32:09;;;;;;;;;;;21.90;25.30;;;;;;1588877;74;710;-66
2022/03/04 11:34:11;;;;;;;;;;;21.90;25.30;;;;;;1587977;74;713;-66
2022/03/04 11:36:13;;;;;;;;;;;21.90;25.20;;;;;;1587906;73;1145;-66
2022/03/04 11:38:16;;;;;;;;;;;21.90;25.30;;;;;;1588229;74;813;-66
2022/03/04 11:40:33;;;;;;;;;;;21.90;25.10;;;;;;1583365;74;702;-66
2022/03/04 11:42:39;;;;;;;;;;;21.90;25.00;;;;;;1588143;74;691;-66
2022/03/04 11:44:46;;;;;;;;;;;21.80;24.90;;;;;;1586753;74;794;-67
2022/03/04 11:47:01;;;;;;;;;;;21.80;25.20;;;;;;1591890;73;1903;-68
2022/03/04 11:49:07;;;;;;;;;;;21.80;24.70;;;;;;1588281;74;783;-66
2022/03/04 11:51:16;;;;;;;;;;;21.70;24.40;;;;;;1564136;74;2092;-64
2022/03/04 11:53:18;;;;;;;;;;;21.70;24.70;;;;;;1588395;74;775;-66
2022/03/04 11:55:26;;;;;;;;;;;21.70;24.30;;;;;;1588263;74;685;-68
2022/03/04 11:57:27;;;;;;;;;;;21.60;24.70;;;;;;1587465;73;1605;-67
2022/03/04 11:59:29;;;;;;;;;;;21.60;24.40;;;;;;1583673;74;664;-66
2022/03/04 12:01:33;;;;;;;;;;;21.50;24.50;;;;;;1588425;74;1921;-68
2022/03/04 12:03:35;;;;;;;;;;;21.50;24.50;;;;;;1588232;74;1169;-69
2022/03/04 12:05:38;;;;;;;;;;;21.60;24.20;;;;;;1588245;74;814;-69
2022/03/04 12:07:44;;;;;;;;;;;21.60;23.90;;;;;;1583997;74;1187;-68
2022/03/04 12:09:55;;;;;;;;;;;21.50;24.30;;;;;;1580644;74;759;-67